createdAt,value
2019-06-01T00:00:53.489Z,2.60
2019-06-01T00:03:21.174Z,2.57
2019-06-01T00:05:48.538Z,2.80
2019-06-01T00:08:15.236Z,2.90
2019-06-01T00:10:42.958Z,3.17
2019-06-01T00:13:09.531Z,3.37
2019-06-01T00:15:37.023Z,2.83
2019-06-01T00:18:03.398Z,2.40
2019-06-01T00:20:29.658Z,2.10
2019-06-01T00:22:55.958Z,2.20
2019-06-01T00:25:22.331Z,1.93
2019-06-01T00:27:48.864Z,1.70
2019-06-01T00:30:26.551Z,1.87
2019-06-01T00:32:45.176Z,1.63
2019-06-01T00:35:11.707Z,1.90
2019-06-01T00:37:38.258Z,1.60
2019-06-01T00:40:05.943Z,1.97
2019-06-01T00:42:32.460Z,2.10
2019-06-01T00:44:58.828Z,1.40
2019-06-01T00:47:25.430Z,1.70
2019-06-01T00:49:53.086Z,1.90
2019-06-01T00:52:19.834Z,1.60
2019-06-01T00:54:47.242Z,1.70
2019-06-01T00:57:13.792Z,1.47
2019-06-01T00:59:40.490Z,1.70
2019-06-01T01:02:07.236Z,1.50
2019-06-01T01:04:34.622Z,1.80
2019-06-01T01:07:01.283Z,1.47
2019-06-01T01:09:28.018Z,1.67
2019-06-01T01:11:55.375Z,1.70
2019-06-01T01:14:22.141Z,1.57
2019-06-01T01:16:49.482Z,1.40
2019-06-01T01:19:17.079Z,1.57
2019-06-01T01:21:43.690Z,1.60
2019-06-01T01:24:10.080Z,1.70
2019-06-01T01:26:36.669Z,1.77
2019-06-01T01:29:03.706Z,1.43
2019-06-01T01:31:29.974Z,1.80
2019-06-01T01:33:57.537Z,1.53
2019-06-01T01:36:24.832Z,1.40
2019-06-01T01:38:52.293Z,1.60
2019-06-01T01:41:19.886Z,1.40
2019-06-01T01:43:46.329Z,1.70
2019-06-01T01:46:12.996Z,1.53
2019-06-01T01:48:39.367Z,1.60
2019-06-01T01:51:05.753Z,1.50
2019-06-01T01:53:33.407Z,1.20
2019-06-01T01:55:59.675Z,1.70
2019-06-01T01:58:30.266Z,1.53
2019-06-01T02:00:58.409Z,1.50
2019-06-01T02:03:24.834Z,1.40
2019-06-01T02:05:51.131Z,1.60
2019-06-01T02:08:17.570Z,1.57
2019-06-01T02:10:44.238Z,1.80
2019-06-01T02:13:10.731Z,1.63
2019-06-01T02:15:39.051Z,1.40
2019-06-01T02:18:05.534Z,1.63
2019-06-01T02:20:32.338Z,1.53
2019-06-01T02:22:58.965Z,1.50
2019-06-01T02:25:26.715Z,1.43
2019-06-01T02:27:53.212Z,1.50
2019-06-01T02:30:22.084Z,1.67
2019-06-01T02:32:48.585Z,1.50
2019-06-01T02:35:15.063Z,1.47
2019-06-01T02:37:42.466Z,1.67
2019-06-01T02:40:09.338Z,1.20
2019-06-01T02:42:35.740Z,1.60
2019-06-01T02:45:05.775Z,1.40
2019-06-01T02:47:32.282Z,1.67
2019-06-01T02:49:59.428Z,1.60
2019-06-01T02:52:26.260Z,1.33
2019-06-01T02:54:52.631Z,1.50
2019-06-01T02:57:19.294Z,1.73
2019-06-01T02:59:45.558Z,1.83
2019-06-01T03:02:14.963Z,1.73
2019-06-01T03:04:40.962Z,1.80
2019-06-01T03:07:08.772Z,1.50
2019-06-01T03:09:38.226Z,1.67
2019-06-01T03:12:06.603Z,1.30
2019-06-01T03:14:33.447Z,1.50
2019-06-01T03:17:00.028Z,1.53
2019-06-01T03:19:28.107Z,1.40
2019-06-01T03:21:59.558Z,1.60
2019-06-01T03:24:26.310Z,1.60
2019-06-01T03:26:53.575Z,1.47
2019-06-01T03:29:20.627Z,1.60
2019-06-01T03:31:47.602Z,1.77
2019-06-01T03:34:14.565Z,1.50
2019-06-01T03:36:41.751Z,1.40
2019-06-01T03:39:08.336Z,1.57
2019-06-01T03:41:34.939Z,1.67
2019-06-01T03:44:02.555Z,1.43
2019-06-01T03:46:29.759Z,1.73
2019-06-01T03:48:56.285Z,1.80
2019-06-01T03:51:22.779Z,1.83
2019-06-01T03:53:49.083Z,1.70
2019-06-01T03:56:15.730Z,1.87
2019-06-01T03:58:42.100Z,1.80
2019-06-01T04:01:09.163Z,2.77
2019-06-01T04:03:35.919Z,2.10
2019-06-01T04:06:03.331Z,2.23
2019-06-01T04:08:30.116Z,2.13
2019-06-01T04:10:56.515Z,2.60
2019-06-01T04:13:22.778Z,2.20
2019-06-01T04:15:49.250Z,2.57
2019-06-01T04:18:15.540Z,2.13
2019-06-01T04:20:41.945Z,2.40
2019-06-01T04:23:08.734Z,1.90
2019-06-01T04:25:35.049Z,2.30
2019-06-01T04:28:02.152Z,2.40
2019-06-01T04:30:29.765Z,2.00
2019-06-01T04:32:56.159Z,2.13
2019-06-01T04:35:22.731Z,2.07
2019-06-01T04:37:50.227Z,1.93
2019-06-01T04:40:16.594Z,2.03
2019-06-01T04:42:42.903Z,2.17
2019-06-01T04:45:10.802Z,2.00
2019-06-01T04:47:37.542Z,2.00
2019-06-01T04:50:04.587Z,1.83
2019-06-01T04:52:31.890Z,1.70
2019-06-01T04:54:58.498Z,2.03
2019-06-01T04:57:24.868Z,1.87
2019-06-01T04:59:51.163Z,2.27
2019-06-01T05:02:17.424Z,2.10
2019-06-01T05:04:43.796Z,1.97
2019-06-01T05:07:11.233Z,1.93
2019-06-01T05:09:37.685Z,2.20
2019-06-01T05:12:05.176Z,1.80
2019-06-01T05:14:31.750Z,2.23
2019-06-01T05:16:58.448Z,2.03
2019-06-01T05:19:24.834Z,1.93
2019-06-01T05:21:51.128Z,2.17
2019-06-01T05:24:17.648Z,2.20
2019-06-01T05:26:43.925Z,2.07
2019-06-01T05:29:11.649Z,1.87
2019-06-01T05:31:38.113Z,2.03
2019-06-01T05:34:05.194Z,1.97
2019-06-01T05:36:31.761Z,2.00
2019-06-01T05:38:58.400Z,2.07
2019-06-01T05:41:25.136Z,2.13
2019-06-01T05:43:51.719Z,2.10
2019-06-01T05:46:18.844Z,2.13
2019-06-01T05:48:46.543Z,2.03
2019-06-01T05:51:15.586Z,2.23
2019-06-01T05:53:41.147Z,2.33
2019-06-01T05:56:07.438Z,2.23
2019-06-01T05:58:34.064Z,2.17
2019-06-01T06:01:00.825Z,2.33
2019-06-01T06:03:39.974Z,2.27
2019-06-01T06:05:55.831Z,2.17
2019-06-01T06:08:22.393Z,2.23
2019-06-01T06:10:49.014Z,2.30
2019-06-01T06:13:15.439Z,2.33
2019-06-01T06:15:42.115Z,2.70
2019-06-01T06:18:08.478Z,2.20
2019-06-01T06:20:34.770Z,2.03
2019-06-01T06:23:01.171Z,2.23
2019-06-01T06:25:29.188Z,2.10
2019-06-01T06:27:55.949Z,2.30
2019-06-01T06:30:23.064Z,2.57
2019-06-01T06:32:49.635Z,2.50
2019-06-01T06:35:16.007Z,2.10
2019-06-01T06:37:42.504Z,2.13
2019-06-01T06:40:11.208Z,2.10
2019-06-01T06:42:37.850Z,1.80
2019-06-01T06:45:05.338Z,2.00
2019-06-01T06:47:31.835Z,1.87
2019-06-01T06:49:58.238Z,2.50
2019-06-01T06:52:25.753Z,2.53
2019-06-01T06:54:52.259Z,2.37
2019-06-01T06:57:18.693Z,2.00
2019-06-01T06:59:45.377Z,2.37
2019-06-01T07:02:12.063Z,1.73
2019-06-01T07:04:38.444Z,2.10
2019-06-01T07:07:04.926Z,2.43
2019-06-01T07:09:31.624Z,2.20
2019-06-01T07:11:57.999Z,2.57
2019-06-01T07:14:25.374Z,2.23
2019-06-01T07:16:51.879Z,2.50
2019-06-01T07:19:19.351Z,2.27
2019-06-01T07:21:45.875Z,2.13
2019-06-01T07:24:12.695Z,2.23
2019-06-01T07:26:39.409Z,2.23
2019-06-01T07:29:06.150Z,3.13
2019-06-01T07:31:32.786Z,2.20
2019-06-01T07:33:59.203Z,2.17
2019-06-01T07:36:26.716Z,2.17
2019-06-01T07:38:53.479Z,2.43
2019-06-01T07:41:20.657Z,2.50
2019-06-01T07:43:47.249Z,2.13
2019-06-01T07:46:13.618Z,2.20
2019-06-01T07:48:39.915Z,2.03
2019-06-01T07:51:06.515Z,2.60
2019-06-01T07:53:33.355Z,2.47
2019-06-01T07:55:59.630Z,2.27
2019-06-01T07:58:26.774Z,2.37
2019-06-01T08:00:53.590Z,2.03
2019-06-01T08:03:20.011Z,2.60
2019-06-01T08:05:46.751Z,2.10
2019-06-01T08:08:13.138Z,1.57
2019-06-01T08:10:39.738Z,1.90
2019-06-01T08:13:06.439Z,1.90
2019-06-01T08:15:32.977Z,1.80
2019-06-01T08:17:59.615Z,1.70
2019-06-01T08:20:26.185Z,1.77
2019-06-01T08:22:52.918Z,1.50
2019-06-01T08:25:19.353Z,1.80
2019-06-01T08:27:45.908Z,1.47
2019-06-01T08:30:12.717Z,1.50
2019-06-01T08:32:39.099Z,1.30
2019-06-01T08:35:09.044Z,1.27
2019-06-01T08:37:34.478Z,1.20
2019-06-01T08:40:04.084Z,1.40
2019-06-01T08:42:31.585Z,1.17
2019-06-01T08:44:58.397Z,1.10
2019-06-01T08:47:25.662Z,1.30
2019-06-01T08:49:52.463Z,1.10
2019-06-01T08:52:18.963Z,1.10
2019-06-01T08:54:45.692Z,1.47
2019-06-01T08:57:12.127Z,1.30
2019-06-01T08:59:38.837Z,1.20
2019-06-01T09:02:05.396Z,1.27
2019-06-01T09:04:32.818Z,1.10
2019-06-01T09:06:59.203Z,1.40
2019-06-01T09:09:26.816Z,1.20
2019-06-01T09:11:53.739Z,1.20
2019-06-01T09:14:20.281Z,1.20
2019-06-01T09:16:47.039Z,1.30
2019-06-01T09:19:14.095Z,1.17
2019-06-01T09:21:40.626Z,1.50
2019-06-01T09:24:07.476Z,1.60
2019-06-01T09:26:35.740Z,1.47
2019-06-01T09:29:03.223Z,1.60
2019-06-01T09:31:30.360Z,1.40
2019-06-01T09:33:56.820Z,1.57
2019-06-01T09:36:23.090Z,1.52
2019-06-01T09:38:49.383Z,1.70
2019-06-01T09:41:17.853Z,2.17
2019-06-01T09:43:44.343Z,1.60
2019-06-01T09:46:10.719Z,1.37
2019-06-01T09:48:37.827Z,1.65
2019-06-01T09:51:04.467Z,1.40
2019-06-01T09:53:32.417Z,1.45
2019-06-01T09:55:59.534Z,1.35
2019-06-01T09:58:25.843Z,1.40
2019-06-01T10:00:52.109Z,1.50
2019-06-01T10:03:18.507Z,1.50
2019-06-01T10:06:00.971Z,1.20
2019-06-01T10:08:14.746Z,1.35
2019-06-01T10:10:42.306Z,1.50
2019-06-01T10:13:09.120Z,1.42
2019-06-01T10:15:36.479Z,1.25
2019-06-01T10:18:03.382Z,1.30
2019-06-01T10:20:30.694Z,1.50
2019-06-01T10:22:57.854Z,1.50
2019-06-01T10:25:24.174Z,1.30
2019-06-01T10:27:50.840Z,1.57
2019-06-01T10:30:17.855Z,1.10
2019-06-01T10:32:44.285Z,1.70
2019-06-01T10:35:10.874Z,1.32
2019-06-01T10:37:39.506Z,1.40
2019-06-01T10:40:07.031Z,1.50
2019-06-01T10:42:35.983Z,1.37
2019-06-01T10:45:03.718Z,1.50
2019-06-01T10:47:30.175Z,1.80
2019-06-01T10:49:56.742Z,1.20
2019-06-01T10:52:23.144Z,1.65
2019-06-01T10:54:49.859Z,1.50
2019-06-01T10:57:16.455Z,1.42
2019-06-01T10:59:42.855Z,1.10
2019-06-01T11:02:09.592Z,1.12
2019-06-01T11:04:37.048Z,1.20
2019-06-01T11:07:04.003Z,1.27
2019-06-01T11:09:30.584Z,1.10
2019-06-01T11:11:57.058Z,1.10
2019-06-01T11:14:23.562Z,1.00
2019-06-01T11:16:55.750Z,1.30
2019-06-01T11:19:18.111Z,1.10
2019-06-01T11:21:44.534Z,0.90
2019-06-01T11:24:11.142Z,1.00
2019-06-01T11:26:37.687Z,0.95
2019-06-01T11:29:04.460Z,1.10
2019-06-01T11:31:30.789Z,1.00
2019-06-01T11:33:57.230Z,1.17
2019-06-01T11:36:23.535Z,1.22
2019-06-01T11:38:50.196Z,1.00
2019-06-01T11:41:18.630Z,1.17
2019-06-01T11:43:46.155Z,1.20
2019-06-01T11:46:12.663Z,0.95
2019-06-01T11:48:39.339Z,1.40
2019-06-01T11:51:05.938Z,1.30
2019-06-01T11:53:32.662Z,1.32
2019-06-01T11:55:59.194Z,1.12
2019-06-01T11:58:25.511Z,1.02
2019-06-01T12:00:51.883Z,1.00
2019-06-01T12:03:18.271Z,1.17
2019-06-01T12:05:44.538Z,1.10
2019-06-01T12:08:10.830Z,1.02
2019-06-01T12:10:37.220Z,1.20
2019-06-01T12:13:03.619Z,1.22
2019-06-01T12:15:30.023Z,1.20
2019-06-01T12:17:56.603Z,0.90
2019-06-01T12:20:23.147Z,0.80
2019-06-01T12:22:49.463Z,0.98
2019-06-01T12:25:15.844Z,1.02
2019-06-01T12:27:43.567Z,0.75
2019-06-01T12:30:10.908Z,1.00
2019-06-01T12:32:37.923Z,0.90
2019-06-01T12:35:07.369Z,0.82
2019-06-01T12:37:52.420Z,0.90
2019-06-01T12:40:07.470Z,0.90
2019-06-01T12:42:32.158Z,0.80
2019-06-01T12:44:58.674Z,0.70
2019-06-01T12:47:25.780Z,0.80
2019-06-01T12:49:52.695Z,0.80
2019-06-01T12:52:19.565Z,0.90
2019-06-01T12:54:46.727Z,1.00
2019-06-01T12:57:13.476Z,0.93
2019-06-01T12:59:41.081Z,0.70
2019-06-01T13:02:07.726Z,0.72
2019-06-01T13:04:34.115Z,1.00
2019-06-01T13:07:00.598Z,1.05
2019-06-01T13:09:27.066Z,0.85
2019-06-01T13:11:53.445Z,1.00
2019-06-01T13:14:19.840Z,1.10
2019-06-01T13:16:50.704Z,1.10
2019-06-01T13:19:14.745Z,1.07
2019-06-01T13:21:41.410Z,1.30
2019-06-01T13:24:07.930Z,1.10
2019-06-01T13:26:34.231Z,1.00
2019-06-01T13:29:00.875Z,1.40
2019-06-01T13:31:28.263Z,1.20
2019-06-01T13:33:54.577Z,1.10
2019-06-01T13:36:21.062Z,1.10
2019-06-01T13:38:47.318Z,0.95
2019-06-01T13:41:13.628Z,1.07
2019-06-01T13:43:39.986Z,1.20
2019-06-01T13:46:06.856Z,1.15
2019-06-01T13:48:33.778Z,1.10
2019-06-01T13:51:00.176Z,1.15
2019-06-01T13:53:26.637Z,1.20
2019-06-01T13:55:53.025Z,1.00
2019-06-01T13:58:19.300Z,1.30
2019-06-01T14:00:46.341Z,1.30
2019-06-01T14:03:12.691Z,1.27
2019-06-01T14:05:39.157Z,1.50
2019-06-01T14:08:05.642Z,1.20
2019-06-01T14:10:32.094Z,1.10
2019-06-01T14:12:58.483Z,1.10
2019-06-01T14:15:25.059Z,1.20
2019-06-01T14:17:52.345Z,1.20
2019-06-01T14:20:19.289Z,1.42
2019-06-01T14:22:45.873Z,1.27
2019-06-01T14:25:15.015Z,1.57
2019-06-01T14:27:40.624Z,1.27
2019-06-01T14:30:07.619Z,1.10
2019-06-01T14:32:34.223Z,1.30
2019-06-01T14:35:00.559Z,1.45
2019-06-01T14:37:26.821Z,1.05
2019-06-01T14:39:54.963Z,1.35
2019-06-01T14:42:21.665Z,1.27
2019-06-01T14:44:49.226Z,1.30
2019-06-01T14:47:18.609Z,1.25
2019-06-01T14:49:44.208Z,1.30
2019-06-01T14:52:10.471Z,1.30
2019-06-01T14:54:36.769Z,1.45
2019-06-01T14:57:03.698Z,1.20
2019-06-01T14:59:30.095Z,1.47
2019-06-01T15:01:56.483Z,1.40
2019-06-01T15:04:22.790Z,1.37
2019-06-01T15:06:50.227Z,1.65
2019-06-01T15:09:19.315Z,1.30
2019-06-01T15:11:45.662Z,1.50
2019-06-01T15:14:12.255Z,1.70
2019-06-01T15:16:38.815Z,1.30
2019-06-01T15:19:05.192Z,1.77
2019-06-01T15:21:31.487Z,1.47
2019-06-01T15:23:58.765Z,1.77
2019-06-01T15:26:25.371Z,1.50
2019-06-01T15:28:53.056Z,1.62
2019-06-01T15:31:19.571Z,1.37
2019-06-01T15:33:45.936Z,1.40
2019-06-01T15:36:12.482Z,1.40
2019-06-01T15:38:38.745Z,1.40
2019-06-01T15:41:05.223Z,1.17
2019-06-01T15:43:31.686Z,1.40
2019-06-01T15:45:57.976Z,1.37
2019-06-01T15:48:24.344Z,1.27
2019-06-01T15:50:51.583Z,1.57
2019-06-01T15:53:18.015Z,1.32
2019-06-01T15:55:44.611Z,1.20
2019-06-01T15:58:11.007Z,1.42
2019-06-01T16:00:38.003Z,1.60
2019-06-01T16:03:04.399Z,1.67
2019-06-01T16:05:30.991Z,1.20
2019-06-01T16:07:59.296Z,1.27
2019-06-01T16:10:25.724Z,1.22
2019-06-01T16:12:53.272Z,2.15
2019-06-01T16:15:19.687Z,1.45
2019-06-01T16:17:46.070Z,1.55
2019-06-01T16:20:13.057Z,1.27
2019-06-01T16:22:39.577Z,1.40
2019-06-01T16:25:07.851Z,1.32
2019-06-01T16:27:34.344Z,1.42
2019-06-01T16:30:02.404Z,1.60
2019-06-01T16:32:29.843Z,1.37
2019-06-01T16:34:56.899Z,1.25
2019-06-01T16:37:23.719Z,1.42
2019-06-01T16:39:58.675Z,1.47
2019-06-01T16:42:18.199Z,1.10
2019-06-01T16:44:44.815Z,1.27
2019-06-01T16:47:11.390Z,1.20
2019-06-01T16:49:37.932Z,1.22
2019-06-01T16:52:05.191Z,1.52
2019-06-01T16:54:31.847Z,1.47
2019-06-01T16:56:58.470Z,1.30
2019-06-01T16:59:25.071Z,1.30
2019-06-01T17:01:51.684Z,1.30
2019-06-01T17:04:18.591Z,1.50
2019-06-01T17:06:45.091Z,1.57
2019-06-01T17:09:11.752Z,1.65
2019-06-01T17:11:38.209Z,1.60
2019-06-01T17:14:05.258Z,1.52
2019-06-01T17:16:31.634Z,1.45
2019-06-01T17:18:58.952Z,2.20
2019-06-01T17:21:25.594Z,2.08
2019-06-01T17:23:52.202Z,1.60
2019-06-01T17:26:18.572Z,2.00
2019-06-01T17:28:44.864Z,3.52
2019-06-01T17:31:11.636Z,2.40
2019-06-01T17:33:38.020Z,2.00
2019-06-01T17:36:04.775Z,1.42
2019-06-01T17:38:31.512Z,1.70
2019-06-01T17:40:57.874Z,1.45
2019-06-01T17:43:24.271Z,1.40
2019-06-01T17:45:50.641Z,1.60
2019-06-01T17:48:25.659Z,1.47
2019-06-01T17:50:45.489Z,1.52
2019-06-01T17:53:13.045Z,1.30
2019-06-01T17:55:39.671Z,1.45
2019-06-01T17:58:07.678Z,1.60
2019-06-01T18:00:35.063Z,2.00
2019-06-01T18:03:01.758Z,1.40
2019-06-01T18:05:28.646Z,1.57
2019-06-01T18:07:55.126Z,1.43
2019-06-01T18:10:22.830Z,1.40
2019-06-01T18:12:50.725Z,1.57
2019-06-01T18:15:17.691Z,1.20
2019-06-01T18:17:44.214Z,1.00
2019-06-01T18:20:11.035Z,1.10
2019-06-01T18:22:37.492Z,1.00
2019-06-01T18:25:06.341Z,1.37
2019-06-01T18:27:33.406Z,1.40
2019-06-01T18:30:00.076Z,1.30
2019-06-01T18:32:26.874Z,1.20
2019-06-01T18:34:53.565Z,1.00
2019-06-01T18:37:19.827Z,1.07
2019-06-01T18:39:48.127Z,1.23
2019-06-01T18:42:18.065Z,1.80
2019-06-01T18:44:43.086Z,1.07
2019-06-01T18:47:09.769Z,1.50
2019-06-01T18:49:36.650Z,1.20
2019-06-01T18:52:04.125Z,1.07
2019-06-01T18:54:30.615Z,1.10
2019-06-01T18:57:09.653Z,1.10
2019-06-01T18:59:25.155Z,0.90
2019-06-01T19:01:51.519Z,1.10
2019-06-01T19:04:17.918Z,0.93
2019-06-01T19:06:44.283Z,0.80
2019-06-01T19:09:11.304Z,0.90
2019-06-01T19:11:37.654Z,0.90
2019-06-01T19:14:03.929Z,0.73
2019-06-01T19:16:30.197Z,1.03
2019-06-01T19:18:56.603Z,0.80
2019-06-01T19:21:22.970Z,1.20
2019-06-01T19:23:49.571Z,1.00
2019-06-01T19:26:17.809Z,0.97
2019-06-01T19:28:44.426Z,0.80
2019-06-01T19:31:11.295Z,1.00
2019-06-01T19:33:37.987Z,0.93
2019-06-01T19:36:04.585Z,0.73
2019-06-01T19:38:31.768Z,0.80
2019-06-01T19:40:58.505Z,0.80
2019-06-01T19:43:24.792Z,1.00
2019-06-01T19:45:51.367Z,0.77
2019-06-01T19:48:19.092Z,0.83
2019-06-01T19:50:45.777Z,0.83
2019-06-01T19:53:12.680Z,0.90
2019-06-01T19:55:39.458Z,0.87
2019-06-01T19:58:05.942Z,0.80
2019-06-01T20:00:32.430Z,0.80
2019-06-01T20:02:59.086Z,1.00
2019-06-01T20:05:25.469Z,0.90
2019-06-01T20:07:52.157Z,0.90
2019-06-01T20:10:19.004Z,1.00
2019-06-01T20:12:46.398Z,1.40
2019-06-01T20:15:13.299Z,1.07
2019-06-01T20:17:39.851Z,1.00
2019-06-01T20:20:07.374Z,1.00
2019-06-01T20:22:33.791Z,1.10
2019-06-01T20:25:00.182Z,1.10
2019-06-01T20:27:26.784Z,0.93
2019-06-01T20:29:53.359Z,1.13
2019-06-01T20:32:20.063Z,1.10
2019-06-01T20:34:46.802Z,1.00
2019-06-01T20:37:13.930Z,1.10
2019-06-01T20:39:40.351Z,1.33
2019-06-01T20:42:20.986Z,1.07
2019-06-01T20:44:35.024Z,1.10
2019-06-01T20:47:01.518Z,1.10
2019-06-01T20:49:27.895Z,0.93
2019-06-01T20:51:54.283Z,0.90
2019-06-01T20:54:21.098Z,1.33
2019-06-01T20:56:47.574Z,1.10
2019-06-01T20:59:17.207Z,0.97
2019-06-01T21:01:42.223Z,0.93
2019-06-01T21:04:08.859Z,1.10
2019-06-01T21:06:35.217Z,0.93
2019-06-01T21:09:01.596Z,1.20
2019-06-01T21:11:29.972Z,0.90
2019-06-01T21:13:56.358Z,0.97
2019-06-01T21:16:22.648Z,1.00
2019-06-01T21:18:49.034Z,0.90
2019-06-01T21:21:16.353Z,1.07
2019-06-01T21:23:42.815Z,1.13
2019-06-01T21:26:09.486Z,1.00
2019-06-01T21:28:35.886Z,1.03
2019-06-01T21:31:02.558Z,0.90
2019-06-01T21:33:29.190Z,1.00
2019-06-01T21:35:55.684Z,1.10
2019-06-01T21:38:23.574Z,1.07
2019-06-01T21:40:50.238Z,0.80
2019-06-01T21:43:27.485Z,1.10
2019-06-01T21:45:45.689Z,1.03
2019-06-01T21:48:12.183Z,1.00
2019-06-01T21:50:38.450Z,1.00
2019-06-01T21:53:05.059Z,1.00
2019-06-01T21:55:31.326Z,1.00
2019-06-01T21:57:57.620Z,1.53
2019-06-01T22:00:29.800Z,1.10
2019-06-01T22:02:58.470Z,1.00
2019-06-01T22:05:25.370Z,1.10
2019-06-01T22:07:52.158Z,1.10
2019-06-01T22:10:19.099Z,1.10
2019-06-01T22:12:45.986Z,1.03
2019-06-01T22:15:13.550Z,1.40
2019-06-01T22:17:39.830Z,0.90
2019-06-01T22:20:06.536Z,1.00
2019-06-01T22:22:33.236Z,1.10
2019-06-01T22:24:59.729Z,1.10
2019-06-01T22:27:26.401Z,1.20
2019-06-01T22:29:53.235Z,1.00
2019-06-01T22:32:23.077Z,1.00
2019-06-01T22:34:48.342Z,1.27
2019-06-01T22:37:14.621Z,1.40
2019-06-01T22:39:41.102Z,1.10
2019-06-01T22:42:07.400Z,1.13
2019-06-01T22:44:34.101Z,1.10
2019-06-01T22:47:00.538Z,1.30
2019-06-01T22:49:28.832Z,1.30
2019-06-01T22:51:55.291Z,1.17
2019-06-01T22:54:22.756Z,1.30
2019-06-01T22:56:49.961Z,1.20
2019-06-01T22:59:16.335Z,1.17
2019-06-01T23:01:42.709Z,1.00
2019-06-01T23:04:09.447Z,1.10
2019-06-01T23:06:36.089Z,0.97
2019-06-01T23:09:06.255Z,1.20
2019-06-01T23:11:32.549Z,1.20
2019-06-01T23:13:58.819Z,1.10
2019-06-01T23:16:25.605Z,1.03
2019-06-01T23:18:52.371Z,1.13
2019-06-01T23:21:18.816Z,1.40
2019-06-01T23:23:45.341Z,1.20
2019-06-01T23:26:11.766Z,0.93
2019-06-01T23:28:38.894Z,1.10
2019-06-01T23:31:05.384Z,1.00
2019-06-01T23:33:32.973Z,1.40
2019-06-01T23:35:59.582Z,1.13
2019-06-01T23:38:26.605Z,1.33
2019-06-01T23:40:53.351Z,1.13
2019-06-01T23:43:19.744Z,1.20
2019-06-01T23:45:46.411Z,1.03
2019-06-01T23:48:12.796Z,1.20
2019-06-01T23:50:39.171Z,1.43
2019-06-01T23:53:13.610Z,1.27
2019-06-01T23:55:34.119Z,1.30
2019-06-01T23:58:00.620Z,1.00
